Latest Weather Observations for Maryborough

IDQ60801

Issued at 12:32 pm EST Saturday 20 December 2014 (issued every 30 minutes, with the page automatically refreshed every 10 minutes)

About weather observations | Map of weather stations | Latest weather observations for QLD | Other Formats
Station Details ID: 040126 Name: MARYBOROUGH Lat: -25.52 Lon: 152.72 Height: 10.28 m
Data from the previous 72 hours. | See also: Recent months at Maryborough
Date/Time
EST
Temp
°C
App
Temp
°C
Dew
Point
Rel
Hum
%
Delta-T
°C
Wind Press
QNH
hPa
Press
MSL
hPa
Rain
since 9 am
mm
Dir
 
Spd
km/h
Gust
km/h
Spd
kts
Gust
kts
20/12:30pm 29.1 28.5 18.8 53 6.6 E 20 30 11 16 1013.5 - 0.0
20/12:00pm 29.6 29.6 18.1 50 7.4 ESE 15 24 8 13 1013.8 1013.7 0.0
20/11:30am 29.3 28.6 18.7 52 6.8 ESE 20 32 11 17 1014.3 - 0.0
20/11:00am 29.0 28.3 18.7 53 6.6 ESE 20 30 11 16 1014.6 - 0.0
20/10:30am 29.4 29.2 19.7 56 6.3 ESE 20 28 11 15 1014.8 - 0.0
20/10:00am 28.0 27.2 18.4 56 6.1 SE 20 30 11 16 1014.9 - 0.0
20/09:30am 28.8 28.3 19.1 55 6.3 ESE 20 28 11 15 1014.9 - 0.0
20/09:00am 28.6 28.8 20.1 60 5.6 SE 19 24 10 13 1014.9 1014.8 0.2
20/08:30am 28.2 27.6 19.7 60 5.5 ESE 22 28 12 15 1014.8 - 0.2
20/08:00am 27.3 27.7 20.6 67 4.4 ESE 19 24 10 13 1014.7 - 0.2
20/07:30am 26.1 27.1 21.1 74 3.3 SE 17 24 9 13 1014.5 - 0.2
20/07:00am 24.8 25.2 20.7 78 2.7 SE 19 26 10 14 1014.3 - 0.2
20/06:30am 23.9 25.3 21.0 84 1.9 SSE 15 20 8 11 1013.9 - 0.2
20/06:00am 22.9 24.5 20.8 88 1.4 SSE 13 20 7 11 1013.5 1013.4 0.2
20/05:30am 22.0 23.6 20.8 93 0.8 S 13 19 7 10 1013.2 - 0.2
20/05:00am 21.4 23.0 20.7 96 0.5 S 13 17 7 9 1012.7 - 0.2
20/04:30am 20.7 22.6 19.7 94 0.6 S 9 13 5 7 1012.4 - 0.2
20/04:00am 20.6 22.9 19.8 95 0.5 SSE 7 9 4 5 1012.0 - 0.2
20/03:35am 20.8 22.6 20.3 97 0.3 SSE 11 15 6 8 1012.1 - 0.2
20/03:30am 20.9 22.7 20.4 97 0.3 SSE 11 15 6 8 1012.1 - 0.2
20/03:00am 20.5 23.0 19.8 96 0.4 SSE 6 7 3 4 1012.0 1011.9 0.2
20/02:42am 20.1 22.2 19.3 95 0.5 SE 7 9 4 5 1011.9 - 0.2
20/02:30am 20.7 23.2 20.2 97 0.3 SSE 7 9 4 5 1011.8 - 0.2
20/02:26am 20.7 23.2 20.2 97 0.3 SSE 7 9 4 5 1011.8 - 0.2
20/02:00am 20.6 22.9 19.9 96 0.4 SSE 7 7 4 4 1011.7 - 0.2
20/01:30am 20.3 23.4 19.5 95 0.5 SSE 2 9 1 5 1011.8 - 0.2
20/01:28am 20.4 23.9 19.6 95 0.5 CALM 0 7 0 4 1011.8 - 0.2
20/01:00am 20.7 23.0 19.9 95 0.5 SE 7 11 4 6 1011.9 - 0.2
20/12:34am 20.7 22.3 19.9 95 0.5 ESE 11 15 6 8 1011.7 - 0.2
20/12:30am 20.8 22.5 20.1 96 0.4 ESE 11 15 6 8 1011.7 - 0.2
20/12:05am 20.8 24.0 19.8 94 0.6 W 2 6 1 3 1011.6 - 0.2
20/12:00am 21.2 24.4 20.4 95 0.5 W 4 7 2 4 1011.6 1011.5 0.2
 
Date/Time
EST
Temp
°C
App
Temp
°C
Dew
Point
Rel
Hum
%
Delta-T
°C
Wind Press
QNH
hPa
Press
MSL
hPa
Rain
since 9 am
mm
Dir
 
Spd
km/h
Gust
km/h
Spd
kts
Gust
kts
19/11:58pm 21.5 24.8 20.7 95 0.5 W 4 7 2 4 1011.6 - 0.2
19/11:37pm 20.8 24.2 19.3 91 0.9 CALM 0 0 0 0 1011.9 - 0.2
19/11:30pm 21.3 25.0 19.9 92 0.9 CALM 0 0 0 0 1012.0 - 0.2
19/11:00pm 21.8 24.9 20.3 91 1.0 NNW 4 7 2 4 1012.3 - 0.2
19/10:30pm 22.2 24.9 20.7 91 1.0 N 7 9 4 5 1012.5 - 0.2
19/10:00pm 22.5 24.9 20.8 90 1.1 N 9 9 5 5 1012.4 - 0.2
19/09:30pm 22.7 25.0 20.6 88 1.4 N 9 11 5 6 1012.3 - 0.2
19/09:00pm 23.1 25.8 20.6 86 1.6 NNE 7 11 4 6 1012.2 1012.1 0.2
19/08:30pm 23.6 26.3 20.7 84 1.9 NNE 7 9 4 5 1011.9 - 0.2
19/08:00pm 24.0 26.4 20.9 83 2.0 N 9 11 5 6 1011.8 - 0.2
19/07:30pm 24.6 26.6 20.7 79 2.6 N 11 13 6 7 1011.6 - 0.2
19/07:00pm 25.2 27.2 20.7 76 3.0 NNE 11 15 6 8 1011.0 - 0.2
19/06:30pm 26.7 28.5 20.3 68 4.2 N 11 15 6 8 1010.7 - 0.2
19/06:00pm 29.0 30.9 19.0 54 6.5 NE 7 9 4 5 1010.4 1010.3 0.2
19/05:30pm 29.8 31.4 19.2 53 6.9 NNE 9 11 5 6 1010.0 - 0.2
19/05:00pm 30.1 31.9 18.8 50 7.3 NNE 7 11 4 6 1009.7 - 0.2
19/04:30pm 30.0 31.7 18.1 49 7.6 NE 6 13 3 7 1009.5 - 0.2
19/04:00pm 30.9 32.7 18.3 47 8.1 NW 6 9 3 5 1009.4 - 0.2
19/03:30pm 30.0 32.4 19.7 54 6.7 W 6 13 3 7 1009.5 - 0.2
19/03:00pm 29.4 31.2 18.8 53 6.9 N 7 11 4 6 1009.8 1009.7 0.2
19/02:30pm 29.0 31.2 19.3 55 6.3 NW 6 17 3 9 1010.1 - 0.2
19/02:00pm 28.8 30.8 19.1 55 6.3 WSW 7 17 4 9 1010.6 - 0.2
19/01:30pm 28.3 30.3 19.2 57 5.9 SW 7 15 4 8 1011.0 - 0.2
19/01:00pm 27.4 29.6 19.2 61 5.3 W 6 11 3 6 1011.3 - 0.2
19/12:30pm 26.4 28.2 18.8 63 4.9 N 7 13 4 7 1011.5 - 0.2
19/12:00pm 25.8 27.8 19.9 70 3.8 WSW 9 17 5 9 1011.9 1011.8 0.2
19/11:30am 24.4 26.2 20.3 78 2.7 NW 11 15 6 8 1012.2 - 0.2
19/11:00am 23.7 24.9 19.8 79 2.5 W 13 17 7 9 1012.5 - 0.2
19/10:30am 23.1 24.8 20.1 83 1.9 W 11 15 6 8 1012.8 - 0.2
19/10:00am 22.2 24.4 19.6 85 1.7 WNW 7 9 4 5 1012.7 - 0.2
19/09:30am 22.1 24.1 20.0 88 1.3 WNW 9 13 5 7 1013.0 - 0.2
19/09:00am 22.2 24.6 20.1 88 1.4 W 7 9 4 5 1013.0 1012.9 10.4
19/08:30am 22.0 24.7 20.6 92 0.9 W 7 11 4 6 1013.0 - 10.2
19/08:00am 21.8 23.6 20.4 92 0.9 SW 11 15 6 8 1012.9 - 10.0
19/07:30am 21.2 22.9 20.2 94 0.6 S 11 17 6 9 1012.6 - 10.0
19/07:00am 20.9 22.9 19.9 94 0.6 S 9 15 5 8 1012.5 - 9.8
19/06:30am 20.6 22.7 19.4 93 0.8 S 7 11 4 6 1012.4 - 9.4
19/06:00am 20.5 22.7 19.3 93 0.8 S 6 7 3 4 1012.4 1012.3 9.4
19/05:30am 20.4 21.6 19.1 92 0.8 S 11 13 6 7 1012.5 - 9.0
19/05:00am 20.5 21.8 19.2 92 0.8 SSE 11 17 6 9 1012.3 - 8.0
19/04:30am 21.1 23.3 19.7 92 0.9 SSW 7 9 4 5 1012.2 - 7.4
19/04:00am 21.2 22.4 19.8 92 0.9 S 13 20 7 11 1012.0 - 6.6
19/03:30am 21.6 22.6 20.2 92 0.9 SSW 15 20 8 11 1011.8 - 5.6
19/03:00am 21.7 22.7 20.2 91 1.0 SW 15 22 8 12 1011.6 1011.5 5.2
19/02:51am 22.0 23.2 20.6 92 0.9 SW 15 20 8 11 1011.8 - 5.2
19/02:30am 22.6 24.4 21.2 92 0.9 WSW 13 19 7 10 1011.9 - 4.6
19/02:14am 22.7 25.8 21.5 93 0.8 SW 7 11 4 6 1012.0 - 4.2
19/02:00am 22.7 25.5 21.5 93 0.8 SW 9 11 5 6 1011.9 - 3.8
19/01:30am 22.8 25.6 21.6 93 0.8 WSW 9 13 5 7 1012.2 - 3.2
19/01:00am 22.7 23.9 21.5 93 0.8 SW 17 20 9 11 1012.2 - 2.0
19/12:30am 22.8 24.0 20.7 88 1.4 SW 15 20 8 11 1012.2 - 1.0
19/12:00am 23.2 25.7 21.1 88 1.4 SSW 9 13 5 7 1012.1 1012.0 0.6
 
Date/Time
EST
Temp
°C
App
Temp
°C
Dew
Point
Rel
Hum
%
Delta-T
°C
Wind Press
QNH
hPa
Press
MSL
hPa
Rain
since 9 am
mm
Dir
 
Spd
km/h
Gust
km/h
Spd
kts
Gust
kts
18/11:30pm 23.3 26.1 20.8 86 1.6 W 7 11 4 6 1012.5 - 0.6
18/11:00pm 23.2 24.8 20.7 86 1.6 S 13 15 7 8 1012.2 - 0.4
18/10:30pm 24.1 26.3 21.2 84 1.9 WSW 11 17 6 9 1012.7 - 0.2
18/10:00pm 25.1 25.9 20.6 76 2.9 WNW 17 22 9 12 1012.9 - 0.0
18/09:30pm 26.4 27.8 20.3 69 4.0 WNW 13 17 7 9 1012.4 - 0.0
18/09:00pm 26.2 27.5 20.1 69 4.0 NNW 13 17 7 9 1011.9 1011.8 0.0
18/08:30pm 26.7 27.0 19.6 65 4.6 NNW 17 20 9 11 1011.5 - 0.0
18/08:00pm 27.1 28.4 20.2 66 4.5 WSW 13 19 7 10 1011.5 - 0.0
18/07:30pm 26.2 27.6 21.8 77 2.9 N 17 28 9 15 1009.9 - 0.0
18/07:00pm 26.3 27.1 21.7 76 3.1 N 20 30 11 16 1009.4 - 0.0
18/06:30pm 26.5 26.0 21.5 74 3.3 N 26 33 14 18 1009.0 - 0.0
18/06:00pm 26.6 27.0 20.7 70 3.9 N 19 28 10 15 1008.9 1008.8 0.0
18/05:30pm 26.9 27.4 21.2 71 3.8 N 20 33 11 18 1008.8 - 0.0
18/05:00pm 27.3 27.8 21.1 69 4.1 N 20 30 11 16 1008.6 - 0.0
18/04:30pm 27.9 27.4 20.7 65 4.8 N 24 35 13 19 1008.1 - 0.0
18/04:00pm 28.4 27.4 20.4 62 5.3 N 26 37 14 20 1007.6 - 0.0
18/03:30pm 29.3 28.4 19.9 57 6.2 N 24 43 13 23 1007.4 - 0.0
18/03:00pm 29.6 28.3 20.7 58 5.9 N 28 46 15 25 1007.2 1007.1 0.0
18/02:59pm 29.7 28.3 20.5 57 6.1 N 28 46 15 25 1007.3 - 0.0
18/02:30pm 30.4 29.0 21.2 58 6.2 N 30 41 16 22 1007.8 - 0.0
18/02:00pm 30.7 29.4 20.6 54 6.7 N 28 39 15 21 1008.3 - 0.0
18/01:30pm 31.0 30.4 21.2 56 6.6 N 26 39 14 21 1008.9 - 0.0
18/01:00pm 30.6 29.4 20.8 56 6.5 N 28 41 15 22 1009.4 - 0.0
18/12:30pm 30.6 30.2 21.7 59 6.0 N 26 37 14 20 1009.6 - 0.0
18/12:00pm 30.3 29.9 21.7 60 5.8 N 26 35 14 19 1009.9 1009.8 0.0
18/11:30am 30.8 32.2 23.5 65 5.0 N 22 30 12 16 1010.5 - 0.0
18/11:00am 30.5 31.8 22.7 63 5.3 N 20 33 11 18 1010.6 - 0.0
18/10:30am 30.0 30.8 22.4 63 5.2 N 22 32 12 17 1011.2 - 0.0
18/10:00am 30.3 31.6 22.7 64 5.2 N 20 28 11 15 1011.3 - 0.0
18/09:30am 30.1 31.8 23.0 65 4.9 N 19 32 10 17 1011.4 - 0.0
18/09:00am 29.6 31.3 23.1 68 4.5 N 19 24 10 13 1011.6 1011.5 0.0
18/08:30am 29.2 30.6 21.9 64 4.9 N 17 24 9 13 1011.6 - 0.0
18/08:00am 29.1 31.3 22.6 68 4.4 NW 15 19 8 10 1011.6 - 0.0
18/07:30am 28.9 32.2 23.8 74 3.5 NNW 13 20 7 11 1011.5 - 0.0
18/07:00am 27.2 31.0 22.8 77 3.0 ESE 7 9 4 5 1011.7 - 0.0
18/06:30am 27.1 31.4 22.7 77 3.0 SE 4 7 2 4 1011.5 - 0.0
18/06:00am 25.1 29.6 21.6 81 2.3 CALM 0 4 0 2 1011.1 1011.0 0.0
18/05:30am 24.3 27.7 21.6 85 1.8 SSE 6 9 3 5 1010.8 - 0.0
18/05:06am 24.6 28.1 22.1 86 1.7 SSE 7 9 4 5 1010.2 - 0.0
18/05:00am 24.5 27.9 22.0 86 1.7 SSE 7 9 4 5 1010.0 - 0.0
18/04:48am 24.7 27.9 22.4 87 1.5 S 9 11 5 6 1009.7 - 0.0
18/04:30am 24.8 29.7 22.3 86 1.7 CALM 0 0 0 0 1009.3 - 0.0
18/04:00am 25.2 29.3 22.9 87 1.6 ENE 6 7 3 4 1008.6 - 0.0
18/03:30am 25.4 29.1 22.3 83 2.1 N 6 7 3 4 1008.5 - 0.0
18/03:00am 25.4 28.6 22.3 83 2.1 NNW 9 13 5 7 1008.4 1008.3 0.0
18/02:30am 25.7 28.3 22.0 80 2.5 N 11 17 6 9 1008.1 - 0.0
18/02:00am 25.9 27.3 21.8 78 2.7 NNW 17 22 9 12 1008.0 - 0.0
18/01:30am 25.7 27.6 21.4 77 2.8 NNW 13 17 7 9 1008.1 - 0.0
18/01:00am 25.7 26.0 20.5 73 3.4 NNW 19 24 10 13 1007.9 - 0.0
18/12:30am 26.0 25.3 19.6 68 4.1 NNW 22 30 12 16 1008.3 - 0.0
18/12:00am 26.0 26.1 19.2 66 4.4 N 17 26 9 14 1008.6 1008.5 0.0
 
Date/Time
EST
Temp
°C
App
Temp
°C
Dew
Point
Rel
Hum
%
Delta-T
°C
Wind Press
QNH
hPa
Press
MSL
hPa
Rain
since 9 am
mm
Dir
 
Spd
km/h
Gust
km/h
Spd
kts
Gust
kts
17/11:30pm 25.5 25.2 18.2 64 4.6 N 17 24 9 13 1008.4 - 0.0
17/11:00pm 24.6 25.1 19.2 72 3.5 NNE 15 20 8 11 1008.9 - 0.0
17/10:30pm 24.3 23.8 19.1 73 3.3 NNE 20 30 11 16 1009.1 - 0.0
17/10:00pm 22.9 22.7 17.6 72 3.3 NNE 15 20 8 11 1009.6 - 0.0
17/09:30pm 23.4 22.5 16.9 67 4.0 NE 17 35 9 19 1010.2 - 0.0
17/09:27pm 23.5 21.8 16.3 64 4.4 E 20 37 11 20 1010.2 - 0.0
17/09:00pm 22.5 17.8 17.8 75 2.9 SE 39 57 21 31 1010.6 1010.5 0.0
17/08:30pm 22.2 15.5 18.0 77 2.6 SE 50 76 27 41 1010.7 - 0.0
17/08:22pm 23.3 18.8 19.0 77 2.7 SSE 41 69 22 37 1010.9 - 0.0
17/08:21pm 23.3 19.6 19.2 78 2.6 SSE 37 65 20 35 1010.9 - 0.0
17/08:08pm 25.6 23.5 19.7 70 3.8 S 30 50 16 27 1009.7 - 0.0
17/08:00pm 25.9 24.3 19.1 66 4.4 S 26 44 14 24 1009.2 - 0.0
17/07:53pm 26.3 24.9 20.4 70 3.9 SSW 28 44 15 24 1008.5 - 0.0
17/07:30pm 26.7 28.9 23.2 81 2.4 N 17 26 9 14 1006.5 - 0.0
17/07:00pm 26.7 29.0 23.4 82 2.3 NNE 17 24 9 13 1006.5 - 0.0
17/06:30pm 27.0 27.9 23.3 80 2.5 N 24 35 13 19 1006.0 - 0.0
17/06:00pm 27.6 29.8 23.2 77 3.0 N 17 24 9 13 1005.7 1005.6 0.0
17/05:30pm 28.9 29.4 22.6 69 4.3 NNE 24 37 13 20 1004.8 - 0.0
17/05:00pm 29.9 31.2 22.6 65 5.0 NNE 20 32 11 17 1004.6 - 0.0
17/04:30pm 30.6 31.3 23.0 64 5.2 N 24 33 13 18 1004.2 - 0.0
17/04:00pm 31.6 32.6 22.9 60 6.0 N 22 32 12 17 1003.9 - 0.0
17/03:30pm 32.1 32.7 22.8 58 6.4 NNE 24 35 13 19 1003.9 - 0.0
17/03:00pm 32.6 33.3 23.0 57 6.6 N 24 32 13 17 1004.0 1003.9 0.0
17/02:30pm 33.5 34.5 22.9 53 7.3 NNE 22 30 12 16 1004.5 - 0.0
17/02:00pm 33.6 34.9 23.3 55 7.1 NNE 22 30 12 16 1004.9 - 0.0
17/01:30pm 33.6 35.6 23.0 54 7.3 NNE 17 30 9 16 1005.2 - 0.0
17/01:00pm 34.6 34.1 17.8 37 10.9 NNW 17 24 9 13 1005.6 - 0.0

Other Formats:

Comma delimited format used in spreadsheet applications
http://www.bom.gov.au/fwo/IDQ60801/IDQ60801.94567.axf

JavaScript Object Notation format (JSON) in row-major order
http://www.bom.gov.au/fwo/IDQ60801/IDQ60801.94567.json